Time;durP1;ratioP1;P1;durP2;ratioP2;P2;SDS_P1;SDS_P2;PMS_P1;PMS_P2;Temp;Humidity;BMP_temperature;BMP_pressure;BME280_temperature;BME280_humidity;BME280_pressure;Samples;Min_cycle;Max_cycle;Signal;HPM_P1;HPM_P2
2022/07/20 00:00:46;;;;;;;18.40;7.50;;;;;;;16.72;81.27;100393.42;105254;1274;66897;-75
2022/07/20 00:03:34;;;;;;;15.80;8.00;;;;;;;16.71;81.39;100396.89;104763;1274;71293;-75
2022/07/20 00:06:22;;;;;;;17.10;7.80;;;;;;;16.70;81.16;100399.48;104815;1273;59310;-75
2022/07/20 00:12:17;;;;;;;17.30;8.20;;;;;;;16.69;80.98;100397.92;104932;1274;72358;-74
2022/07/20 00:15:06;;;;;;;15.40;7.50;;;;;;;16.66;81.08;100394.70;104948;1274;67745;-75
2022/07/20 00:17:54;;;;;;;14.90;7.90;;;;;;;16.60;81.15;100396.64;104705;1275;72839;-73
2022/07/20 00:20:42;;;;;;;15.30;7.90;;;;;;;16.56;81.44;100400.16;105204;1274;59156;-74
2022/07/20 00:23:30;;;;;;;15.30;8.10;;;;;;;16.50;81.53;100396.20;105028;1274;62062;-73
2022/07/20 00:26:18;;;;;;;18.50;8.00;;;;;;;16.45;81.64;100399.71;104962;1274;73244;-75
2022/07/20 00:29:06;;;;;;;18.90;7.40;;;;;;;16.42;82.08;100397.87;105131;1274;68559;-74
2022/07/20 00:31:54;;;;;;;16.90;8.20;;;;;;;16.39;82.12;100399.09;105177;1274;73276;-74
2022/07/20 00:34:43;;;;;;;15.60;8.20;;;;;;;16.36;82.22;100394.74;104886;1274;59851;-74
2022/07/20 00:37:31;;;;;;;15.30;8.60;;;;;;;16.31;82.58;100390.89;104845;1274;62092;-74
2022/07/20 00:40:20;;;;;;;15.40;8.50;;;;;;;16.25;82.67;100392.06;105273;1274;73331;-75
2022/07/20 00:43:08;;;;;;;15.00;7.90;;;;;;;16.18;82.99;100399.33;104786;1274;69614;-76
2022/07/20 00:45:57;;;;;;;15.00;8.20;;;;;;;16.12;83.09;100397.92;104852;1277;73102;-74
2022/07/20 00:48:45;;;;;;;18.20;8.10;;;;;;;16.07;83.49;100402.14;104901;1274;60548;-75
2022/07/20 00:51:37;;;;;;;16.90;8.20;;;;;;;16.02;83.80;100404.78;104993;1274;59537;-76
2022/07/20 00:54:25;;;;;;;17.40;8.20;;;;;;;15.97;84.05;100405.76;104723;1274;71135;-74
2022/07/20 00:57:15;;;;;;;19.10;8.40;;;;;;;15.93;84.45;100400.42;104934;1274;69007;-74
2022/07/20 01:00:07;;;;;;;17.40;8.30;;;;;;;15.89;84.60;100402.22;105178;1274;72630;-73
2022/07/20 01:02:55;;;;;;;15.70;8.10;;;;;;;15.85;84.90;100400.48;104913;1274;59337;-73
2022/07/20 01:05:43;;;;;;;16.90;8.80;;;;;;;15.80;85.07;100403.06;105123;1274;61299;-73
2022/07/20 01:08:32;;;;;;;14.60;8.60;;;;;;;15.76;85.37;100402.70;104908;1274;70797;-74
2022/07/20 01:11:21;;;;;;;15.40;8.30;;;;;;;15.71;85.37;100408.21;105148;1274;68402;-75
2022/07/20 01:14:09;;;;;;;16.60;8.80;;;;;;;15.64;85.71;100408.46;105166;1274;72769;-75
2022/07/20 01:16:57;;;;;;;16.40;8.30;;;;;;;15.58;86.28;100407.98;105100;1274;61282;-75
2022/07/20 01:19:46;;;;;;;15.90;8.80;;;;;;;15.54;86.29;100412.26;104991;1274;60318;-76
2022/07/20 01:22:34;;;;;;;17.20;8.20;;;;;;;15.46;86.50;100416.63;105143;1274;72589;-74
2022/07/20 01:25:22;;;;;;;15.40;8.70;;;;;;;15.45;86.75;100427.00;105264;1274;69452;-75
2022/07/20 01:28:13;;;;;;;15.50;8.80;;;;;;;15.45;87.00;100426.52;105110;1272;73406;-74
2022/07/20 01:31:01;;;;;;;18.40;7.80;;;;;;;15.43;87.14;100422.39;104999;1274;59426;-74
2022/07/20 01:33:49;;;;;;;16.00;7.80;;;;;;;15.40;87.49;100419.16;104775;1274;59420;-74
2022/07/20 01:36:37;;;;;;;15.60;7.70;;;;;;;15.34;87.62;100417.15;104817;1274;72447;-72
2022/07/20 01:39:25;;;;;;;14.90;7.50;;;;;;;15.29;87.58;100412.08;104919;1274;66677;-74
2022/07/20 01:42:13;;;;;;;17.20;8.90;;;;;;;15.23;87.66;100407.77;105259;1274;70790;-74
2022/07/20 01:45:01;;;;;;;15.30;8.20;;;;;;;15.19;87.84;100405.85;105137;1274;61262;-74
2022/07/20 01:47:51;;;;;;;20.70;8.30;;;;;;;15.16;88.28;100409.15;105053;1274;60055;-75
2022/07/20 01:50:40;;;;;;;15.30;8.30;;;;;;;15.14;88.51;100407.91;104616;1274;70271;-75
2022/07/20 01:53:29;;;;;;;15.70;8.30;;;;;;;15.13;88.55;100411.57;104858;1274;69863;-75
2022/07/20 01:56:17;;;;;;;16.80;8.50;;;;;;;15.12;88.43;100406.83;104954;1274;74416;-74
2022/07/20 01:59:05;;;;;;;17.50;8.70;;;;;;;15.11;88.80;100407.81;105126;1274;59575;-74
2022/07/20 02:01:53;;;;;;;20.30;9.10;;;;;;;15.08;88.45;100403.83;104834;1273;59699;-74
2022/07/20 02:04:42;;;;;;;17.10;8.30;;;;;;;15.03;88.92;100411.02;104875;1274;72198;-75
2022/07/20 02:07:30;;;;;;;15.70;8.30;;;;;;;15.02;88.88;100411.84;105231;1274;69778;-72
2022/07/20 02:10:18;;;;;;;16.60;8.30;;;;;;;15.00;88.95;100408.14;105177;1273;72674;-73
2022/07/20 02:13:06;;;;;;;16.30;8.30;;;;;;;14.96;88.90;100401.83;104896;1274;59304;-73
2022/07/20 02:19:00;;;;;;;16.80;7.70;;;;;;;14.90;89.30;100417.02;105261;1273;72343;-74
2022/07/20 02:21:48;;;;;;;14.70;7.50;;;;;;;14.89;89.19;100419.64;104943;1274;69565;-74
2022/07/20 02:24:36;;;;;;;13.30;7.60;;;;;;;14.88;88.92;100412.76;104857;1273;74210;-73
2022/07/20 02:27:24;;;;;;;13.60;7.20;;;;;;;14.89;88.47;100412.11;104863;1274;59475;-73
2022/07/20 02:30:12;;;;;;;16.20;7.80;;;;;;;14.89;88.52;100418.23;104834;1273;59368;-74
2022/07/20 02:33:03;;;;;;;14.50;7.10;;;;;;;14.89;88.38;100419.25;105107;1274;72221;-73
2022/07/20 02:35:51;;;;;;;14.10;6.90;;;;;;;14.88;88.12;100417.97;104911;1274;66815;-73
2022/07/20 02:38:40;;;;;;;14.40;7.30;;;;;;;14.86;88.12;100423.10;104887;1273;72583;-74
2022/07/20 02:41:28;;;;;;;15.90;7.50;;;;;;;14.84;88.50;100424.91;105005;1274;61111;-74
2022/07/20 02:44:16;;;;;;;12.50;7.70;;;;;;;14.80;88.23;100429.38;104947;1274;59736;-74
2022/07/20 02:47:04;;;;;;;15.70;7.30;;;;;;;14.77;88.50;100432.68;105159;1274;72464;-74
2022/07/20 02:49:52;;;;;;;15.60;7.50;;;;;;;14.75;88.51;100434.80;104695;1274;69892;-74
2022/07/20 02:52:42;;;;;;;15.40;7.90;;;;;;;14.74;88.60;100437.77;104986;1274;72875;-74
2022/07/20 02:55:30;;;;;;;15.60;8.10;;;;;;;14.75;88.86;100436.45;105069;1274;60614;-75
2022/07/20 02:58:18;;;;;;;15.70;8.80;;;;;;;14.78;88.71;100439.56;104988;1274;60974;-73
2022/07/20 03:01:06;;;;;;;16.90;8.10;;;;;;;14.82;88.74;100441.32;104958;1274;72437;-73
2022/07/20 03:03:54;;;;;;;18.10;8.50;;;;;;;14.84;88.43;100443.83;105207;1274;69739;-73
2022/07/20 03:06:42;;;;;;;17.60;8.60;;;;;;;14.84;88.64;100448.82;104923;1274;74605;-73
2022/07/20 03:09:31;;;;;;;17.00;8.70;;;;;;;14.85;88.70;100446.23;105369;1272;61248;-74
2022/07/20 03:12:18;;;;;;;17.30;7.90;;;;;;;14.87;88.52;100442.88;105031;1274;60379;-76
2022/07/20 03:15:09;;;;;;;17.00;8.30;;;;;;;14.88;88.71;100449.91;104993;1272;72458;-76
2022/07/20 03:17:57;;;;;;;15.30;7.80;;;;;;;14.90;88.66;100454.04;104929;1274;66556;-74
2022/07/20 03:20:46;;;;;;;14.10;8.20;;;;;;;14.93;88.61;100455.88;105268;1274;74399;-73
2022/07/20 03:23:34;;;;;;;15.10;7.90;;;;;;;14.96;88.64;100462.45;104899;1274;59380;-74
2022/07/20 03:26:22;;;;;;;17.70;8.40;;;;;;;14.95;88.55;100456.63;104897;1273;59728;-76
2022/07/20 03:29:10;;;;;;;16.00;8.00;;;;;;;15.04;88.63;100465.27;104941;1274;73895;-74
2022/07/20 03:31:58;;;;;;;15.80;7.40;;;;;;;15.07;88.32;100465.02;104958;1274;68087;-74
2022/07/20 03:34:47;;;;;;;17.20;7.60;;;;;;;15.10;88.21;100469.41;105155;1274;74388;-75
2022/07/20 03:37:35;;;;;;;15.60;7.60;;;;;;;15.14;88.08;100468.65;104906;1274;59855;-75
2022/07/20 03:40:24;;;;;;;15.20;7.70;;;;;;;15.20;88.08;100469.92;105109;1274;60402;-77
2022/07/20 03:43:12;;;;;;;14.80;7.80;;;;;;;15.27;87.95;100473.58;105251;1273;72771;-77
2022/07/20 03:46:00;;;;;;;14.90;7.10;;;;;;;15.35;87.88;100472.12;104739;1274;67615;-77
2022/07/20 03:48:48;;;;;;;14.50;7.30;;;;;;;15.44;87.62;100473.66;104897;1273;71584;-76
2022/07/20 03:51:38;;;;;;;12.80;7.10;;;;;;;15.53;87.36;100471.38;105289;1274;59394;-76
2022/07/20 03:54:26;;;;;;;14.60;7.50;;;;;;;15.62;86.86;100469.85;105065;1272;59809;-75
2022/07/20 03:57:14;;;;;;;15.20;7.60;;;;;;;15.71;86.72;100473.45;105123;1274;71207;-76
2022/07/20 04:00:04;;;;;;;15.50;7.80;;;;;;;15.80;86.38;100474.45;105067;1273;69552;-75
2022/07/20 04:02:52;;;;;;;13.90;8.30;;;;;;;15.89;86.08;100471.80;105098;1274;74226;-75
2022/07/20 04:05:40;;;;;;;18.00;8.10;;;;;;;16.00;85.73;100472.74;105184;1274;59294;-75
2022/07/20 04:08:28;;;;;;;16.30;7.00;;;;;;;16.12;85.45;100477.01;105122;1273;60462;-76
2022/07/20 04:11:16;;;;;;;15.30;7.90;;;;;;;16.26;84.89;100480.91;105368;1274;73327;-76
2022/07/20 04:14:04;;;;;;;15.30;7.30;;;;;;;16.41;84.48;100483.27;105025;1273;66948;-75
2022/07/20 04:16:52;;;;;;;16.50;7.60;;;;;;;16.53;83.79;100484.58;104917;1274;71888;-74
2022/07/20 04:19:40;;;;;;;17.30;7.40;;;;;;;16.65;83.39;100485.77;105200;1274;59861;-77
2022/07/20 04:22:28;;;;;;;15.60;7.30;;;;;;;16.79;82.84;100489.41;104956;1274;61702;-77
2022/07/20 04:25:17;;;;;;;15.40;6.80;;;;;;;16.93;82.41;100489.39;105237;1274;73516;-76
2022/07/20 04:28:05;;;;;;;14.80;6.70;;;;;;;17.06;81.51;100493.68;105251;1272;67387;-76
2022/07/20 04:30:53;;;;;;;15.30;7.00;;;;;;;17.22;81.03;100498.41;105019;1274;74338;-76
2022/07/20 04:33:41;;;;;;;14.90;6.40;;;;;;;17.39;80.41;100497.24;105014;1272;59408;-77
2022/07/20 04:36:29;;;;;;;16.50;6.80;;;;;;;17.56;79.67;100496.06;105143;1274;60513;-76
2022/07/20 04:39:17;;;;;;;13.50;6.10;;;;;;;17.75;78.49;100494.02;105237;1274;70904;-76
2022/07/20 04:42:05;;;;;;;11.10;5.60;;;;;;;17.95;77.33;100494.71;105029;1272;69976;-76
2022/07/20 04:44:53;;;;;;;12.60;5.40;;;;;;;18.16;75.51;100491.67;105231;1274;71349;-77
2022/07/20 04:47:41;;;;;;;12.70;5.50;;;;;;;18.38;73.61;100492.27;105014;1273;59622;-75
2022/07/20 04:50:29;;;;;;;14.30;5.50;;;;;;;18.64;72.32;100496.89;104996;1274;59458;-76
2022/07/20 04:53:17;;;;;;;10.40;5.20;;;;;;;18.97;71.20;100492.19;105053;1274;72896;-76
2022/07/20 04:56:06;;;;;;;10.50;5.00;;;;;;;19.45;69.06;100487.06;104988;1274;68355;-77
2022/07/20 04:58:55;;;;;;;10.40;4.60;;;;;;;20.09;66.53;100488.42;105206;1273;72698;-76
2022/07/20 05:01:43;;;;;;;10.60;4.70;;;;;;;20.81;64.83;100487.65;105076;1272;59262;-76
2022/07/20 05:04:31;;;;;;;10.40;4.20;;;;;;;21.60;60.98;100488.30;105194;1274;60420;-74
2022/07/20 05:07:19;;;;;;;9.10;4.00;;;;;;;22.34;58.15;100487.30;105394;1274;73555;-74
2022/07/20 05:10:08;;;;;;;11.60;3.90;;;;;;;22.99;55.22;100484.50;105566;1274;68189;-75
2022/07/20 05:12:56;;;;;;;11.00;4.10;;;;;;;23.35;53.79;100486.79;105016;1274;74892;-75
2022/07/20 05:15:44;;;;;;;10.90;3.70;;;;;;;23.73;52.47;100485.37;105158;1274;59380;-76
2022/07/20 05:18:32;;;;;;;10.00;4.20;;;;;;;24.29;51.06;100478.73;104987;1274;60221;-75
2022/07/20 05:21:20;;;;;;;10.40;4.30;;;;;;;24.94;49.27;100482.39;105008;1274;73874;-76
2022/07/20 05:24:09;;;;;;;14.00;4.40;;;;;;;25.45;47.56;100483.93;105099;1273;244876;-74
2022/07/20 05:26:56;;;;;;;12.00;3.90;;;;;;;26.17;46.61;100487.56;105479;1272;72875;-75
2022/07/20 05:29:44;;;;;;;10.30;3.90;;;;;;;27.00;43.63;100492.63;105139;1274;59320;-75
2022/07/20 05:32:32;;;;;;;13.10;4.10;;;;;;;27.63;41.92;100497.45;105016;1274;61812;-75
2022/07/20 05:35:27;;;;;;;12.90;4.30;;;;;;;28.31;39.79;100490.21;105054;1274;72650;-75
2022/07/20 05:38:16;;;;;;;20.10;4.60;;;;;;;28.80;38.38;100489.91;105011;1274;68575;-77
2022/07/20 05:41:05;;;;;;;13.10;4.40;;;;;;;29.21;37.05;100491.64;105070;1274;74534;-78
2022/07/20 05:43:53;;;;;;;14.00;4.50;;;;;;;29.78;36.85;100490.24;105014;1274;59279;-76
2022/07/20 05:46:41;;;;;;;15.60;4.40;;;;;;;30.41;35.98;100488.65;105045;1272;60578;-74
2022/07/20 05:49:29;;;;;;;13.80;4.20;;;;;;;30.99;34.98;100484.75;104932;1274;72206;-76
2022/07/20 05:52:19;;;;;;;15.70;4.80;;;;;;;31.55;33.66;100491.73;105293;1274;68685;-75
2022/07/20 05:55:07;;;;;;;13.30;4.00;;;;;;;32.11;32.81;100490.19;105057;1274;74324;-75
2022/07/20 05:57:55;;;;;;;12.10;4.60;;;;;;;32.66;31.97;100489.52;105076;1273;59640;-74
2022/07/20 06:00:43;;;;;;;13.30;4.90;;;;;;;33.18;31.25;100487.61;105240;1274;61270;-73
2022/07/20 06:03:31;;;;;;;9.40;3.80;;;;;;;33.58;30.49;100486.39;104988;1273;73497;-77
2022/07/20 06:06:19;;;;;;;12.10;4.50;;;;;;;33.75;30.06;100483.79;105009;1274;65987;-77
2022/07/20 06:09:09;;;;;;;11.90;4.30;;;;;;;33.87;29.91;100483.56;105131;1274;74492;-75
2022/07/20 06:12:09;;;;;;;20.20;4.30;;;;;;;34.24;29.40;100483.32;105046;1273;59805;-78
2022/07/20 06:14:57;;;;;;;19.90;4.70;;;;;;;34.64;28.81;100478.95;105259;1273;59335;-78
2022/07/20 06:17:45;;;;;;;23.30;5.20;;;;;;;34.97;28.04;100476.36;105304;1273;72310;-76
2022/07/20 06:20:35;;;;;;;24.50;4.40;;;;;;;35.24;27.76;100479.25;105031;1273;67949;-76
2022/07/20 06:23:23;;;;;;;21.00;4.80;;;;;;;35.27;26.98;100482.62;105120;1273;73086;-76
2022/07/20 06:26:11;;;;;;;31.20;4.90;;;;;;;35.33;26.77;100486.63;105039;1273;59382;-75
2022/07/20 06:28:59;;;;;;;29.20;5.10;;;;;;;35.36;26.84;100486.25;105033;1273;60237;-78
2022/07/20 06:31:47;;;;;;;26.30;4.80;;;;;;;35.34;26.31;100485.91;105049;1273;72466;-78
2022/07/20 06:34:56;;;;;;;19.70;4.40;;;;;;;35.43;26.53;100482.34;105039;1273;69477;-78
2022/07/20 06:37:43;;;;;;;20.60;4.60;;;;;;;35.60;26.19;100483.94;104917;1274;72838;-77
2022/07/20 06:40:32;;;;;;;16.20;4.00;;;;;;;35.56;26.53;100484.88;105020;1273;59928;-79
2022/07/20 06:43:22;;;;;;;15.20;3.50;;;;;;;35.65;26.02;100480.89;104934;1274;62086;-79
2022/07/20 06:46:10;;;;;;;11.30;3.40;;;;;;;35.36;26.28;100478.95;105011;1274;72425;-76
2022/07/20 06:48:58;;;;;;;10.40;3.60;;;;;;;35.49;26.24;100483.50;105002;1273;68373;-74
2022/07/20 06:51:46;;;;;;;10.30;3.30;;;;;;;35.58;26.52;100485.33;104967;1273;73314;-76
2022/07/20 06:54:34;;;;;;;10.10;3.30;;;;;;;35.99;26.36;100487.20;104986;1273;59337;-77
2022/07/20 06:57:22;;;;;;;11.00;4.30;;;;;;;35.94;25.77;100489.42;105221;1273;60262;-75
2022/07/20 07:00:12;;;;;;;9.50;3.50;;;;;;;36.19;25.56;100489.21;105058;1273;74178;-75
2022/07/20 07:03:05;;;;;;;11.40;3.60;;;;;;;36.73;25.44;100484.29;105234;1274;66584;-76
2022/07/20 07:05:52;;;;;;;10.80;3.90;;;;;;;37.30;24.60;100481.16;104926;1273;73174;-73
2022/07/20 07:08:41;;;;;;;9.10;3.40;;;;;;;37.78;24.09;100480.05;105419;1273;59775;-74
2022/07/20 07:11:29;;;;;;;11.30;3.50;;;;;;;38.30;23.29;100484.42;105184;1274;61471;-75
2022/07/20 07:14:17;;;;;;;10.50;3.60;;;;;;;38.75;22.97;100487.18;105107;1274;71216;-75
2022/07/20 07:17:05;;;;;;;10.10;3.90;;;;;;;38.92;22.46;100483.17;105176;1273;68194;-73
2022/07/20 07:19:53;;;;;;;14.10;6.60;;;;;;;39.18;22.36;100480.20;105051;1273;73415;-76
2022/07/20 07:22:44;;;;;;;10.60;3.20;;;;;;;39.58;22.02;100476.49;105064;1274;59409;-77
2022/07/20 07:25:32;;;;;;;9.00;3.30;;;;;;;39.91;21.38;100479.56;105377;1274;59820;-72
2022/07/20 07:28:20;;;;;;;9.00;3.10;;;;;;;39.93;20.26;100479.57;105157;1274;72798;-72
2022/07/20 07:31:09;;;;;;;9.00;3.40;;;;;;;39.84;20.86;100479.68;105031;1274;68439;-72
2022/07/20 07:33:57;;;;;;;12.50;3.30;;;;;;;40.11;20.86;100478.48;105263;1274;71599;-73
2022/07/20 07:36:45;;;;;;;10.80;3.30;;;;;;;40.18;20.76;100478.52;105245;1273;59245;-72
2022/07/20 07:39:33;;;;;;;13.20;3.10;;;;;;;40.39;20.35;100477.65;105016;1274;62546;-74
2022/07/20 07:42:22;;;;;;;14.00;3.10;;;;;;;40.05;20.22;100475.63;105045;1274;72251;-76
2022/07/20 07:45:12;;;;;;;10.40;2.90;;;;;;;40.08;20.33;100473.48;104996;1274;69632;-76
2022/07/20 07:48:00;;;;;;;12.20;3.50;;;;;;;39.62;19.71;100467.25;105092;1274;74366;-77
2022/07/20 07:50:48;;;;;;;9.80;3.10;;;;;;;39.74;20.06;100467.11;105130;1274;59305;-75
2022/07/20 07:53:36;;;;;;;14.00;3.30;;;;;;;39.85;19.81;100470.88;105371;1274;61637;-78
2022/07/20 07:56:25;;;;;;;11.50;5.70;;;;;;;39.77;20.09;100471.64;105500;1274;73705;-77
2022/07/20 07:59:13;;;;;;;10.90;3.20;;;;;;;40.17;19.79;100471.08;105067;1274;66881;-76
2022/07/20 08:02:19;;;;;;;10.50;3.30;;;;;;;40.08;19.25;100468.72;105103;1274;75067;-75
2022/07/20 08:05:08;;;;;;;10.90;3.10;;;;;;;40.10;19.46;100468.23;105038;1274;59777;-76
2022/07/20 08:07:56;;;;;;;11.40;5.20;;;;;;;40.33;19.32;100467.16;105055;1273;60567;-77
2022/07/20 08:10:44;;;;;;;12.40;3.90;;;;;;;40.66;19.31;100472.20;105207;1273;72482;-75
2022/07/20 08:13:33;;;;;;;11.30;3.20;;;;;;;41.04;18.89;100471.20;105275;1274;68161;-74
2022/07/20 08:16:21;;;;;;;11.40;2.80;;;;;;;41.27;18.27;100469.91;105019;1274;72926;-75
2022/07/20 08:19:10;;;;;;;11.50;2.90;;;;;;;41.24;18.18;100468.81;105055;1273;59399;-75
2022/07/20 08:21:58;;;;;;;9.10;2.80;;;;;;;41.20;18.01;100470.30;104974;1274;59431;-77
2022/07/20 08:24:46;;;;;;;8.70;2.90;;;;;;;41.17;18.17;100469.77;105089;1274;71228;-77
2022/07/20 08:27:34;;;;;;;11.70;2.80;;;;;;;41.28;17.87;100468.21;105071;1273;68492;-77
2022/07/20 08:30:22;;;;;;;7.80;2.50;;;;;;;41.21;17.90;100468.13;105011;1274;74689;-75
2022/07/20 08:33:31;;;;;;;9.50;2.50;;;;;;;41.05;17.81;100464.89;105266;1274;59883;-76
2022/07/20 08:36:19;;;;;;;8.50;2.40;;;;;;;40.96;17.89;100465.42;105161;1274;60236;-77
2022/07/20 08:39:07;;;;;;;8.40;2.60;;;;;;;40.95;17.36;100460.19;105093;1274;70912;-77
2022/07/20 08:41:55;;;;;;;8.60;2.90;;;;;;;41.12;17.49;100463.91;105005;1273;68173;-78
2022/07/20 08:44:44;;;;;;;10.00;3.90;;;;;;;41.45;16.58;100458.40;105311;1273;73197;-74
2022/07/20 08:47:37;;;;;;;8.70;2.60;;;;;;;41.61;15.85;100459.98;105138;1274;59266;-74
2022/07/20 08:50:28;;;;;;;10.40;4.30;;;;;;;41.64;16.56;100459.28;104980;1273;59299;-76
2022/07/20 08:53:18;;;;;;;7.90;3.40;;;;;;;41.87;16.22;100458.05;104981;1274;72413;-76
2022/07/20 08:56:07;;;;;;;9.00;2.50;;;;;;;42.12;16.16;100456.80;105112;1273;66508;-76
2022/07/20 08:59:13;;;;;;;8.30;2.60;;;;;;;42.04;16.46;100450.83;105158;1274;71421;-77
2022/07/20 09:02:05;;;;;;;8.70;2.60;;;;;;;42.10;16.49;100447.52;105292;1274;59774;-75
2022/07/20 09:04:55;;;;;;;8.20;2.30;;;;;;;41.89;16.04;100446.32;105286;1274;60994;-75
2022/07/20 09:07:51;;;;;;;13.70;3.40;;;;;;;41.61;16.54;100445.59;105045;1274;74120;-76
2022/07/20 09:10:46;;;;;;;12.50;2.80;;;;;;;41.09;18.21;100447.64;105360;1274;68277;-75
2022/07/20 09:13:41;;;;;;;9.60;3.50;;;;;;;41.02;18.65;100443.91;105383;1274;72594;-79
2022/07/20 09:16:39;;;;;;;13.50;3.30;;;;;;;41.16;18.69;100445.06;104929;1273;59606;-77
2022/07/20 09:19:27;;;;;;;15.80;3.00;;;;;;;41.20;17.99;100443.45;105097;1272;60293;-74
2022/07/20 09:22:31;;;;;;;12.10;3.30;;;;;;;41.25;18.21;100443.73;105360;1274;72989;-74
2022/07/20 09:25:22;;;;;;;11.50;3.30;;;;;;;41.37;18.38;100440.88;105111;1274;68322;-74
2022/07/20 09:28:10;;;;;;;10.10;3.10;;;;;;;41.48;17.98;100439.93;105167;1274;72961;-75
2022/07/20 09:30:58;;;;;;;8.90;2.70;;;;;;;41.66;18.16;100437.14;105164;1274;59800;-75
2022/07/20 09:33:53;;;;;;;12.30;3.40;;;;;;;41.76;18.02;100439.11;105054;1273;59394;-74
2022/07/20 09:36:45;;;;;;;8.20;3.40;;;;;;;41.80;18.34;100441.34;104921;1274;74163;-71
2022/07/20 09:39:33;;;;;;;11.20;3.60;;;;;;;41.80;18.35;100444.46;105151;1274;67817;-72
2022/07/20 09:42:38;;;;;;;10.70;3.20;;;;;;;41.74;18.18;100445.25;105253;1274;74299;-73
2022/07/20 09:45:29;;;;;;;12.20;3.40;;;;;;;41.70;18.31;100442.05;105056;1272;59300;-74
2022/07/20 09:48:39;;;;;;;11.70;3.10;;;;;;;41.64;18.14;100439.00;105244;1274;60518;-75
2022/07/20 09:51:38;;;;;;;11.30;3.10;;;;;;;41.60;18.01;100436.48;104980;1272;70871;-71
2022/07/20 09:54:25;;;;;;;7.50;2.80;;;;;;;41.48;18.32;100433.52;105150;1274;67812;-72
2022/07/20 09:57:15;;;;;;;11.30;3.00;;;;;;;41.30;18.19;100438.21;105041;1274;71385;-74
2022/07/20 10:00:04;;;;;;;10.60;3.30;;;;;;;41.14;18.53;100435.30;105015;1273;59873;-74
2022/07/20 10:03:00;;;;;;;9.20;3.20;;;;;;;41.11;18.78;100436.73;105011;1274;59474;-72
2022/07/20 10:05:48;;;;;;;10.00;2.90;;;;;;;41.15;18.50;100432.32;105133;1272;72431;-73
2022/07/20 10:08:36;;;;;;;10.00;2.80;;;;;;;41.04;18.45;100437.96;105283;1273;69275;-77
2022/07/20 10:11:26;;;;;;;10.90;2.80;;;;;;;41.01;18.55;100435.89;104999;1274;73203;-74
2022/07/20 10:14:18;;;;;;;8.60;2.50;;;;;;;40.90;18.56;100444.45;105074;1274;59321;-72
2022/07/20 10:17:07;;;;;;;9.00;3.50;;;;;;;40.82;18.84;100446.08;104930;1273;59372;-73
2022/07/20 10:19:55;;;;;;;12.40;3.90;;;;;;;40.79;18.87;100446.73;105051;1273;72670;-75
2022/07/20 10:22:43;;;;;;;8.70;3.40;;;;;;;40.78;18.86;100449.95;105017;1273;69457;-74
2022/07/20 10:25:32;;;;;;;8.70;3.30;;;;;;;40.77;18.89;100448.75;105246;1274;72867;-73
2022/07/20 10:28:23;;;;;;;9.40;3.40;;;;;;;40.76;18.81;100450.56;105071;1274;59420;-76
2022/07/20 10:31:16;;;;;;;8.60;3.20;;;;;;;40.66;18.81;100450.95;106263;1274;60565;-76
2022/07/20 10:34:05;;;;;;;9.40;3.20;;;;;;;40.33;19.38;100448.34;105978;1274;72828;-75
2022/07/20 10:37:26;;;;;;;11.00;3.20;;;;;;;40.30;19.63;100451.06;105766;1273;66584;-76
2022/07/20 10:40:16;;;;;;;11.50;3.10;;;;;;;40.35;19.68;100450.53;105582;1274;73245;-74
2022/07/20 10:43:15;;;;;;;9.60;3.20;;;;;;;40.57;19.48;100457.84;105075;1273;59398;-76
2022/07/20 10:46:34;;;;;;;7.60;2.90;;;;;;;40.51;19.19;100464.36;105407;1274;60475;-75
2022/07/20 10:50:00;;;;;;;8.60;2.90;;;;;;;40.45;19.45;100461.58;105173;1273;73419;-75
2022/07/20 10:52:53;;;;;;;9.40;3.10;;;;;;;40.56;19.30;100465.11;105216;1274;68079;-76
2022/07/20 10:55:41;;;;;;;8.60;2.80;;;;;;;40.66;19.16;100463.95;105029;1272;74446;-74
2022/07/20 10:58:47;;;;;;;9.30;3.20;;;;;;;40.60;19.30;100463.13;105084;1274;59930;-74
2022/07/20 11:01:37;;;;;;;8.90;3.50;;;;;;;40.64;19.48;100462.38;105271;1274;61195;-74
2022/07/20 11:04:25;;;;;;;9.50;3.40;;;;;;;40.60;19.40;100460.17;105116;1273;72493;-77
2022/07/20 11:07:34;;;;;;;8.70;3.40;;;;;;;40.59;19.69;100461.15;105173;1272;69940;-75
2022/07/20 11:10:30;;;;;;;7.30;2.70;;;;;;;40.49;19.43;100463.36;105303;1274;72985;-76
2022/07/20 11:13:22;;;;;;;7.10;3.00;;;;;;;40.39;19.68;100464.66;105319;1274;58860;-75
2022/07/20 11:16:09;;;;;;;8.50;3.10;;;;;;;40.25;19.88;100461.59;105113;1272;60985;-76
2022/07/20 11:19:01;;;;;;;7.40;3.40;;;;;;;40.06;19.82;100462.63;105046;1274;71215;-72
2022/07/20 11:21:48;;;;;;;8.70;3.10;;;;;;;39.49;20.28;100461.51;104972;1274;67369;-75
2022/07/20 11:24:36;;;;;;;8.70;2.90;;;;;;;38.76;21.20;100469.08;104972;1274;71619;-74
2022/07/20 11:27:24;;;;;;;8.40;2.90;;;;;;;38.08;22.20;100471.38;105095;1274;59272;-73
2022/07/20 11:30:12;;;;;;;9.40;3.60;;;;;;;37.58;22.85;100472.95;105249;1272;61555;-76
2022/07/20 11:33:01;;;;;;;9.20;3.20;;;;;;;37.07;23.58;100474.57;104998;1273;73927;-75
2022/07/20 11:35:51;;;;;;;9.60;3.30;;;;;;;36.62;24.13;100476.23;104996;1274;66609;-75
2022/07/20 11:38:48;;;;;;;7.50;3.50;;;;;;;36.30;24.64;100473.36;105131;1274;73160;-75
2022/07/20 11:41:42;;;;;;;9.20;4.30;;;;;;;35.97;25.02;100474.31;104975;1273;59279;-74
2022/07/20 11:44:30;;;;;;;9.60;5.50;;;;;;;35.51;25.62;100475.38;105287;1274;60496;-74
2022/07/20 11:47:18;;;;;;;8.10;3.50;;;;;;;34.99;25.94;100468.63;105261;1272;71030;-74
2022/07/20 11:50:09;;;;;;;9.60;3.90;;;;;;;34.44;26.26;100472.33;105279;1274;69173;-76
2022/07/20 11:53:25;;;;;;;9.60;4.20;;;;;;;33.92;26.93;100477.80;105075;1273;72996;-76
2022/07/20 11:56:27;;;;;;;9.40;3.80;;;;;;;33.31;28.26;100475.63;105220;1274;59295;-74
2022/07/20 11:59:15;;;;;;;9.40;3.50;;;;;;;32.62;28.73;100472.51;105145;1271;60764;-76
2022/07/20 12:02:03;;;;;;;9.30;3.80;;;;;;;32.16;29.65;100471.71;105002;1274;71119;-75
2022/07/20 12:04:54;;;;;;;8.40;3.40;;;;;;;31.77;30.18;100471.16;105057;1274;66762;-75
2022/07/20 12:10:58;;;;;;;9.20;3.40;;;;;;;30.99;31.35;100473.93;105202;1273;59838;-75
2022/07/20 12:13:48;;;;;;;8.30;3.30;;;;;;;30.41;31.59;100468.54;105363;1274;60581;-76
2022/07/20 12:16:45;;;;;;;11.20;3.30;;;;;;;30.06;32.35;100477.81;105018;1274;72416;-74
2022/07/20 12:19:34;;;;;;;10.80;3.80;;;;;;;29.84;33.22;100479.67;104975;1274;68656;-75
2022/07/20 12:22:29;;;;;;;8.90;3.50;;;;;;;29.61;33.54;100473.08;105334;1274;71725;-74
2022/07/20 12:25:17;;;;;;;12.80;7.20;;;;;;;29.44;33.82;100472.05;104915;1273;59905;-75
2022/07/20 12:28:05;;;;;;;13.10;6.20;;;;;;;29.33;34.15;100477.08;105092;1274;59785;-77
2022/07/20 12:31:21;;;;;;;10.40;4.40;;;;;;;29.25;34.87;100475.33;105084;1274;71192;-75
2022/07/20 12:34:12;;;;;;;8.90;4.00;;;;;;;29.18;34.82;100485.31;105090;1274;69071;-75
2022/07/20 12:37:00;;;;;;;9.40;3.30;;;;;;;29.11;35.82;100483.04;105045;1274;72875;-76
2022/07/20 12:39:53;;;;;;;10.20;3.70;;;;;;;29.09;36.28;100484.68;105226;1273;59253;-75
2022/07/20 12:42:41;;;;;;;9.50;4.00;;;;;;;29.07;36.20;100484.02;105030;1274;60410;-75
2022/07/20 12:45:30;;;;;;;8.40;3.40;;;;;;;28.98;36.66;100483.22;105017;1274;71171;-77
2022/07/20 12:48:18;;;;;;;11.30;4.40;;;;;;;28.94;36.63;100487.41;105035;1274;67355;-74
2022/07/20 12:51:10;;;;;;;9.00;4.10;;;;;;;28.88;36.85;100488.54;105086;1273;72909;-75
2022/07/20 12:53:57;;;;;;;13.30;5.20;;;;;;;28.90;36.48;100481.69;104967;1273;59858;-74
2022/07/20 12:56:50;;;;;;;11.30;4.80;;;;;;;28.81;36.46;100481.21;105060;1272;60512;-76
2022/07/20 12:59:38;;;;;;;18.20;11.10;;;;;;;28.66;36.62;100479.92;105066;1274;72425;-76
2022/07/20 13:02:26;;;;;;;12.60;7.70;;;;;;;28.58;36.50;100474.25;104974;1273;68380;-74
2022/07/20 13:05:15;;;;;;;9.50;3.80;;;;;;;28.52;35.86;100476.19;105059;1274;72870;-75